createdAt,value
2022-11-13T00:00:16.314Z,27.92
2022-11-13T00:02:43.128Z,30.00
2022-11-13T00:05:13.946Z,26.70
2022-11-13T00:07:43.448Z,26.65
2022-11-13T00:10:11.115Z,32.47
2022-11-13T00:12:38.487Z,31.17
2022-11-13T00:15:05.860Z,30.65
2022-11-13T00:17:34.869Z,40.60
2022-11-13T00:20:04.057Z,32.28
2022-11-13T00:22:31.619Z,30.48
2022-11-13T00:24:59.254Z,36.28
2022-11-13T00:27:26.073Z,34.78
2022-11-13T00:29:55.427Z,32.70
2022-11-13T00:32:22.527Z,31.17
2022-11-13T00:34:49.476Z,34.00
2022-11-13T00:37:16.757Z,32.22
2022-11-13T00:39:44.235Z,30.58
2022-11-13T00:42:11.637Z,34.90
2022-11-13T00:44:39.104Z,32.05
2022-11-13T00:47:07.284Z,25.00
2022-11-13T00:49:36.871Z,29.30
2022-11-13T00:52:04.106Z,33.65
2022-11-13T00:54:31.609Z,43.38
2022-11-13T00:56:58.341Z,32.15
2022-11-13T00:59:25.479Z,27.10
2022-11-13T01:01:54.191Z,27.40
2022-11-13T01:04:23.578Z,30.85
2022-11-13T01:06:50.422Z,34.83
2022-11-13T01:09:17.688Z,32.85
2022-11-13T01:11:44.436Z,30.63
2022-11-13T01:14:13.435Z,29.00
2022-11-13T01:16:40.236Z,31.10
2022-11-13T01:19:09.497Z,35.10
2022-11-13T01:21:38.167Z,29.95
2022-11-13T01:24:05.750Z,27.20
2022-11-13T01:26:34.582Z,27.08
2022-11-13T01:29:01.440Z,25.45
2022-11-13T01:31:30.588Z,30.02
2022-11-13T01:34:00.280Z,29.33
2022-11-13T01:36:28.943Z,25.42
2022-11-13T01:38:56.851Z,25.98
2022-11-13T01:41:25.697Z,26.45
2022-11-13T01:43:55.249Z,37.78
2022-11-13T01:46:33.921Z,28.15
2022-11-13T01:49:24.149Z,33.78
2022-11-13T01:52:17.739Z,30.13
2022-11-13T01:54:50.838Z,36.63
2022-11-13T01:57:20.791Z,32.05
2022-11-13T01:59:55.336Z,32.80
2022-11-13T02:02:24.605Z,39.50
2022-11-13T02:04:54.027Z,35.13
2022-11-13T02:07:25.705Z,37.22
2022-11-13T02:09:57.407Z,37.67
2022-11-13T02:12:37.431Z,32.22
2022-11-13T02:15:07.701Z,35.70
2022-11-13T02:17:49.684Z,39.85
2022-11-13T02:20:22.536Z,33.67
2022-11-13T02:23:01.899Z,31.58
2022-11-13T02:25:32.214Z,38.78
2022-11-13T02:27:59.393Z,32.20
2022-11-13T02:30:33.172Z,26.40
2022-11-13T02:33:00.483Z,27.83
2022-11-13T02:35:29.291Z,30.45
2022-11-13T02:37:58.358Z,26.70
2022-11-13T02:40:26.836Z,25.80
2022-11-13T02:42:54.199Z,22.50
2022-11-13T02:45:21.607Z,26.08
2022-11-13T02:47:48.942Z,27.98
2022-11-13T02:50:16.684Z,26.30
2022-11-13T02:52:44.679Z,22.48
2022-11-13T02:55:11.920Z,25.70
2022-11-13T02:57:40.744Z,23.60
2022-11-13T03:00:14.141Z,26.38
2022-11-13T03:02:41.396Z,22.50
2022-11-13T03:05:13.660Z,26.42
2022-11-13T03:07:41.832Z,33.72
2022-11-13T03:10:11.784Z,22.00
2022-11-13T03:12:41.183Z,33.65
2022-11-13T03:15:09.458Z,26.40
2022-11-13T03:17:37.292Z,26.38
2022-11-13T03:20:06.125Z,24.38
2022-11-13T03:22:35.680Z,26.20
2022-11-13T03:25:07.403Z,25.60
2022-11-13T03:27:37.794Z,25.10
2022-11-13T03:30:07.637Z,24.67
2022-11-13T03:32:34.403Z,28.40
2022-11-13T03:35:02.068Z,28.65
2022-11-13T03:37:28.888Z,24.55
2022-11-13T03:39:56.692Z,23.40
2022-11-13T03:42:26.058Z,22.65
2022-11-13T03:44:52.823Z,22.55
2022-11-13T03:47:19.823Z,23.95
2022-11-13T03:49:49.345Z,24.05
2022-11-13T03:52:16.705Z,24.05
2022-11-13T03:54:46.325Z,23.20
2022-11-13T03:57:13.725Z,25.08
2022-11-13T03:59:41.269Z,21.80
2022-11-13T04:02:09.666Z,21.73
2022-11-13T04:04:37.589Z,23.60
2022-11-13T04:07:04.715Z,22.80
2022-11-13T04:09:32.830Z,21.75
2022-11-13T04:12:02.198Z,26.73
2022-11-13T04:14:30.623Z,23.25
2022-11-13T04:16:57.356Z,28.45
2022-11-13T04:19:24.203Z,34.33
2022-11-13T04:21:50.942Z,20.92
2022-11-13T04:24:17.922Z,26.05
2022-11-13T04:26:45.226Z,25.13
2022-11-13T04:29:12.245Z,23.88
2022-11-13T04:31:38.995Z,23.15
2022-11-13T04:34:05.750Z,29.02
2022-11-13T04:36:35.214Z,31.27
2022-11-13T04:39:07.077Z,25.83
2022-11-13T04:41:55.478Z,25.80
2022-11-13T04:44:22.678Z,25.98
2022-11-13T04:46:50.039Z,27.35
2022-11-13T04:49:17.611Z,27.50
2022-11-13T04:51:45.454Z,24.48
2022-11-13T04:54:12.766Z,25.42
2022-11-13T04:56:40.924Z,23.30
2022-11-13T04:59:11.183Z,26.00
2022-11-13T05:01:38.245Z,24.15
2022-11-13T05:04:08.018Z,28.50
2022-11-13T05:06:34.765Z,29.08
2022-11-13T05:09:03.259Z,26.35
2022-11-13T05:11:31.891Z,27.05
2022-11-13T05:14:03.189Z,29.83
2022-11-13T05:16:32.266Z,28.65
2022-11-13T05:18:59.483Z,35.13
2022-11-13T05:21:26.734Z,25.60
2022-11-13T05:23:53.982Z,26.95
2022-11-13T05:26:21.226Z,28.42
2022-11-13T05:28:48.454Z,31.30
2022-11-13T05:31:17.659Z,27.30
2022-11-13T05:33:44.834Z,26.40
2022-11-13T05:36:14.160Z,30.63
2022-11-13T05:38:42.665Z,25.42
2022-11-13T05:41:13.064Z,31.33
2022-11-13T05:43:42.568Z,32.42
2022-11-13T05:46:15.284Z,35.95
2022-11-13T05:48:45.271Z,35.17
2022-11-13T05:51:25.202Z,30.77
2022-11-13T05:53:53.603Z,35.33
2022-11-13T05:56:25.309Z,29.85
2022-11-13T05:58:54.762Z,25.50
2022-11-13T06:01:37.039Z,29.95
2022-11-13T06:04:05.392Z,32.75
2022-11-13T06:06:36.973Z,32.00
2022-11-13T06:09:06.874Z,32.22
2022-11-13T06:11:35.151Z,33.10
2022-11-13T06:14:04.025Z,36.38
2022-11-13T06:16:37.040Z,34.28
2022-11-13T06:19:07.327Z,39.35
2022-11-13T06:21:36.997Z,32.28
2022-11-13T06:24:05.035Z,31.85
2022-11-13T06:26:35.135Z,39.63
2022-11-13T06:29:03.835Z,40.08
2022-11-13T06:31:33.791Z,38.20
2022-11-13T06:34:01.208Z,41.85
2022-11-13T06:36:31.836Z,41.05
2022-11-13T06:38:59.198Z,41.00
2022-11-13T06:41:30.096Z,45.00
2022-11-13T06:44:02.602Z,45.35
2022-11-13T06:46:31.056Z,39.88
2022-11-13T06:48:58.613Z,40.13
2022-11-13T06:51:28.578Z,40.30
2022-11-13T06:53:57.486Z,41.20
2022-11-13T06:56:25.202Z,49.40
2022-11-13T06:58:56.427Z,45.47
2022-11-13T07:01:27.832Z,43.22
2022-11-13T07:03:55.298Z,47.20
2022-11-13T07:06:23.985Z,46.10
2022-11-13T07:08:51.881Z,44.08
2022-11-13T07:11:24.461Z,48.42
2022-11-13T07:13:51.398Z,47.03
2022-11-13T07:16:19.103Z,45.85
2022-11-13T07:18:54.816Z,40.22
2022-11-13T07:21:22.989Z,43.15
2022-11-13T07:23:51.122Z,47.80
2022-11-13T07:26:18.633Z,41.55
2022-11-13T07:28:47.206Z,42.78
2022-11-13T07:31:16.442Z,47.80
2022-11-13T07:33:44.769Z,52.17
2022-11-13T07:36:14.872Z,45.28
2022-11-13T07:38:44.166Z,48.53
2022-11-13T07:41:13.521Z,47.90
2022-11-13T07:43:40.746Z,41.17
2022-11-13T07:46:07.502Z,41.60
2022-11-13T07:48:34.739Z,45.05
2022-11-13T07:51:03.146Z,44.33
2022-11-13T07:53:30.566Z,40.42
2022-11-13T07:56:02.408Z,41.20
2022-11-13T07:58:31.125Z,36.47
2022-11-13T08:01:06.390Z,32.95
2022-11-13T08:03:33.752Z,39.50
2022-11-13T08:06:06.593Z,40.88
2022-11-13T08:08:34.315Z,35.40
2022-11-13T08:11:10.369Z,34.78
2022-11-13T08:13:38.917Z,35.92
2022-11-13T08:16:06.193Z,36.15
2022-11-13T08:18:52.739Z,40.08
2022-11-13T08:21:22.229Z,41.15
2022-11-13T08:24:12.647Z,44.08
2022-11-13T08:26:41.854Z,40.53
2022-11-13T08:29:09.110Z,42.05
2022-11-13T08:31:37.048Z,43.13
2022-11-13T08:34:05.370Z,42.22
2022-11-13T08:36:36.326Z,36.58
2022-11-13T08:39:03.090Z,34.05
2022-11-13T08:41:32.227Z,42.17
2022-11-13T08:44:01.543Z,42.72
2022-11-13T08:46:30.208Z,39.38
2022-11-13T08:48:57.226Z,34.58
2022-11-13T08:51:24.167Z,38.03
2022-11-13T08:53:52.443Z,35.17
2022-11-13T08:56:20.055Z,33.80
2022-11-13T08:58:47.480Z,43.03
2022-11-13T09:01:17.002Z,45.13
2022-11-13T09:03:44.277Z,40.38
2022-11-13T09:06:13.683Z,39.15
2022-11-13T09:08:41.703Z,44.97
2022-11-13T09:11:31.636Z,37.25
2022-11-13T09:13:58.424Z,37.63
2022-11-13T09:16:26.749Z,41.90
2022-11-13T09:18:55.094Z,42.03
2022-11-13T09:21:21.917Z,43.80
2022-11-13T09:23:50.687Z,45.03
2022-11-13T09:26:18.670Z,45.42
2022-11-13T09:28:48.687Z,39.92
2022-11-13T09:31:22.370Z,42.08
2022-11-13T09:33:49.871Z,44.08
2022-11-13T09:36:17.398Z,42.67
2022-11-13T09:38:46.008Z,52.92
2022-11-13T09:41:23.707Z,48.38
2022-11-13T09:44:00.004Z,42.97
2022-11-13T09:46:50.234Z,52.17
2022-11-13T09:49:21.261Z,46.53
2022-11-13T09:51:54.926Z,52.92
2022-11-13T09:54:24.358Z,49.97
2022-11-13T09:57:01.936Z,48.65
2022-11-13T09:59:40.744Z,53.70
2022-11-13T10:02:40.148Z,50.97
2022-11-13T10:05:18.620Z,61.17
2022-11-13T10:08:06.307Z,57.60
2022-11-13T10:10:55.134Z,55.05
2022-11-13T10:16:37.894Z,49.15
2022-11-13T10:19:17.994Z,54.03
2022-11-13T10:22:26.047Z,47.80
2022-11-13T10:24:49.775Z,58.05
2022-11-13T10:27:16.688Z,47.70
2022-11-13T10:29:48.982Z,44.80
2022-11-13T10:32:53.445Z,48.72
2022-11-13T10:35:32.806Z,46.17
2022-11-13T10:38:25.322Z,54.90
2022-11-13T10:40:53.532Z,57.00
2022-11-13T10:43:25.042Z,61.70
2022-11-13T10:45:58.892Z,47.88
2022-11-13T10:48:32.339Z,58.13
2022-11-13T10:51:29.773Z,52.50
2022-11-13T10:53:59.188Z,51.45
2022-11-13T10:56:35.190Z,55.35
2022-11-13T10:59:14.874Z,50.03
2022-11-13T11:01:46.700Z,54.17
2022-11-13T11:04:20.717Z,58.92
2022-11-13T11:07:18.269Z,56.20
2022-11-13T11:09:38.493Z,53.53
2022-11-13T11:12:17.758Z,53.30
2022-11-13T11:14:56.532Z,54.20
2022-11-13T11:17:43.956Z,51.83
2022-11-13T11:20:40.512Z,63.67
2022-11-13T11:23:18.401Z,52.53
2022-11-13T11:26:12.435Z,52.60
2022-11-13T11:28:51.314Z,52.08
2022-11-13T11:31:33.504Z,54.63
2022-11-13T11:34:24.085Z,56.80
2022-11-13T11:37:14.439Z,56.60
2022-11-13T11:40:04.744Z,61.35
2022-11-13T11:42:50.238Z,66.68
2022-11-13T11:45:30.586Z,64.82
2022-11-13T11:47:59.605Z,53.72
2022-11-13T11:50:46.488Z,62.58
2022-11-13T11:53:29.116Z,54.90
2022-11-13T11:56:17.948Z,59.22
2022-11-13T11:59:02.737Z,55.92
2022-11-13T12:01:56.257Z,56.42
2022-11-13T12:04:32.750Z,65.60
2022-11-13T12:07:18.342Z,66.78
2022-11-13T12:10:24.514Z,63.03
2022-11-13T12:12:58.427Z,59.13
2022-11-13T12:15:37.253Z,59.22
2022-11-13T12:18:23.486Z,53.58
2022-11-13T12:21:09.274Z,58.35
2022-11-13T12:24:03.648Z,68.13
2022-11-13T12:26:40.000Z,67.32
2022-11-13T12:29:22.243Z,67.25
2022-11-13T12:32:29.218Z,73.38
2022-11-13T12:35:03.126Z,76.97
2022-11-13T12:37:58.053Z,75.07
2022-11-13T12:40:30.822Z,67.45
2022-11-13T12:43:35.839Z,68.57
2022-11-13T12:46:20.265Z,70.60
2022-11-13T12:48:48.648Z,77.40
2022-11-13T12:51:17.625Z,67.65
2022-11-13T12:53:57.602Z,84.25
2022-11-13T12:56:24.366Z,74.15
2022-11-13T12:59:30.276Z,79.93
2022-11-13T13:02:07.727Z,63.50
2022-11-13T13:04:40.769Z,90.13
2022-11-13T13:07:11.071Z,70.55
2022-11-13T13:10:15.447Z,71.10
2022-11-13T13:13:19.519Z,70.90
2022-11-13T13:16:02.825Z,80.90
2022-11-13T13:18:35.440Z,90.35
2022-11-13T13:21:07.257Z,76.25
2022-11-13T13:23:37.068Z,79.07
2022-11-13T13:26:05.580Z,70.90
2022-11-13T13:28:35.179Z,71.68
2022-11-13T13:31:16.777Z,73.63
2022-11-13T13:33:55.619Z,64.78
2022-11-13T13:36:56.111Z,75.95
2022-11-13T13:39:34.497Z,74.43
2022-11-13T13:42:17.271Z,82.55
2022-11-13T13:45:23.745Z,90.50
2022-11-13T13:47:55.243Z,85.10
2022-11-13T13:50:27.703Z,84.60
2022-11-13T13:52:56.998Z,78.30
2022-11-13T13:55:39.166Z,83.70
2022-11-13T13:58:14.486Z,74.03
2022-11-13T14:01:05.222Z,77.53
2022-11-13T14:03:29.738Z,72.10
2022-11-13T14:06:10.632Z,65.75
2022-11-13T14:08:37.448Z,86.38
2022-11-13T14:11:21.016Z,80.22
2022-11-13T14:13:48.405Z,70.13
2022-11-13T14:16:15.471Z,76.72
2022-11-13T14:18:42.778Z,78.05
2022-11-13T14:21:23.733Z,77.32
2022-11-13T14:23:52.843Z,73.60
2022-11-13T14:26:20.690Z,70.35
2022-11-13T14:28:55.155Z,68.72
2022-11-13T14:31:32.433Z,71.38
2022-11-13T14:34:10.339Z,72.75
2022-11-13T14:36:38.678Z,84.85
2022-11-13T14:39:05.540Z,67.68
2022-11-13T14:41:39.018Z,67.65
2022-11-13T14:44:06.258Z,66.32
2022-11-13T14:46:46.050Z,68.25
2022-11-13T14:49:31.075Z,74.57
2022-11-13T14:51:59.424Z,69.53
2022-11-13T14:55:07.940Z,81.68
2022-11-13T14:57:24.407Z,66.40
2022-11-13T14:59:51.733Z,70.32
2022-11-13T15:02:20.324Z,68.60
2022-11-13T15:04:48.704Z,76.40
2022-11-13T15:07:24.133Z,71.07
2022-11-13T15:09:51.818Z,72.82
2022-11-13T15:12:18.733Z,88.07
2022-11-13T15:14:45.571Z,86.63
2022-11-13T15:17:18.662Z,77.32
2022-11-13T15:19:48.801Z,69.65
2022-11-13T15:22:32.579Z,80.03
2022-11-13T15:24:59.437Z,77.78
2022-11-13T15:27:26.667Z,82.63
2022-11-13T15:29:54.603Z,85.65
2022-11-13T15:32:22.109Z,83.82
2022-11-13T15:34:48.905Z,78.95
2022-11-13T15:37:17.652Z,89.47
2022-11-13T15:39:44.496Z,80.35
2022-11-13T15:42:15.098Z,75.47
2022-11-13T15:44:42.046Z,87.60
2022-11-13T15:47:38.306Z,102.55
2022-11-13T15:50:16.361Z,87.82
2022-11-13T15:52:48.970Z,93.80
2022-11-13T15:55:34.610Z,94.15
2022-11-13T15:58:03.757Z,91.28
2022-11-13T16:00:36.422Z,91.18
2022-11-13T16:03:11.884Z,88.45
2022-11-13T16:05:48.423Z,92.93
2022-11-13T16:08:27.514Z,100.85
2022-11-13T16:10:57.908Z,107.10
2022-11-13T16:13:31.891Z,99.35
2022-11-13T16:16:05.932Z,97.90
2022-11-13T16:24:13.789Z,100.10
2022-11-13T16:26:57.631Z,98.50
2022-11-13T16:37:12.557Z,92.45
2022-11-13T16:39:42.092Z,104.57
2022-11-13T16:42:10.951Z,109.72
2022-11-13T16:44:46.674Z,104.45
2022-11-13T16:47:28.330Z,107.68
2022-11-13T16:49:56.485Z,102.68
2022-11-13T16:52:25.597Z,115.03
2022-11-13T16:55:08.122Z,117.30
2022-11-13T16:57:45.111Z,112.38
2022-11-13T17:00:16.609Z,104.28
2022-11-13T17:02:45.397Z,106.93
2022-11-13T17:11:26.319Z,111.53
2022-11-13T17:19:57.199Z,108.40
2022-11-13T17:26:12.461Z,110.82
2022-11-13T17:31:25.970Z,113.28
2022-11-13T17:33:59.674Z,131.98
2022-11-13T17:36:50.760Z,118.32
2022-11-13T17:39:27.197Z,120.78
2022-11-13T17:41:55.066Z,114.90
2022-11-13T17:44:28.279Z,110.15
2022-11-13T17:49:39.769Z,127.55
2022-11-13T17:54:51.895Z,118.72
2022-11-13T17:57:26.692Z,177.32
2022-11-13T17:59:58.097Z,165.45
2022-11-13T18:02:26.430Z,182.60
2022-11-13T18:04:56.145Z,166.93
2022-11-13T18:07:23.673Z,172.65
2022-11-13T18:09:54.641Z,162.88
2022-11-13T18:15:15.890Z,179.05
2022-11-13T18:20:53.228Z,218.90
2022-11-13T18:23:45.413Z,189.45
2022-11-13T18:26:23.038Z,192.48
2022-11-13T18:28:50.559Z,181.70
2022-11-13T18:34:39.598Z,179.57
2022-11-13T18:37:12.141Z,167.82
2022-11-13T18:39:44.409Z,175.00
2022-11-13T19:00:50.096Z,175.25
2022-11-13T19:21:29.350Z,152.75
2022-11-13T19:24:01.916Z,148.60
2022-11-13T19:26:29.857Z,154.55
2022-11-13T19:29:07.242Z,139.85
2022-11-13T19:31:46.164Z,122.80
2022-11-13T19:34:17.748Z,137.60
2022-11-13T19:36:49.362Z,123.80
2022-11-13T19:39:20.668Z,113.30
2022-11-13T19:41:50.530Z,131.90
2022-11-13T19:44:18.654Z,117.78
2022-11-13T19:49:38.839Z,142.63
2022-11-13T19:52:12.217Z,144.13
2022-11-13T19:57:30.403Z,125.90
2022-11-13T20:03:11.467Z,147.88
2022-11-13T20:05:45.579Z,127.03
2022-11-13T20:08:14.765Z,132.35
2022-11-13T20:19:30.803Z,149.05
2022-11-13T20:24:48.551Z,143.00
2022-11-13T20:30:00.218Z,131.13
2022-11-13T20:32:32.098Z,142.00
2022-11-13T20:35:04.478Z,169.25
2022-11-13T20:37:36.100Z,161.18
2022-11-13T20:40:04.449Z,216.35
2022-11-13T20:42:38.822Z,136.57
2022-11-13T20:45:07.415Z,145.10
2022-11-13T20:47:37.610Z,156.07
2022-11-13T20:50:06.920Z,142.95
2022-11-13T20:52:34.463Z,142.15
2022-11-13T20:55:01.312Z,125.07
2022-11-13T20:57:28.271Z,163.52
2022-11-13T20:59:55.758Z,180.00
2022-11-13T21:02:24.904Z,148.68
2022-11-13T21:04:55.182Z,163.70
2022-11-13T21:07:23.201Z,147.55
2022-11-13T21:09:52.119Z,104.78
2022-11-13T21:12:21.775Z,141.07
2022-11-13T21:14:48.529Z,194.93
2022-11-13T21:17:15.804Z,162.40
2022-11-13T21:19:42.750Z,168.73
2022-11-13T21:22:11.427Z,131.60
2022-11-13T21:24:38.956Z,151.55
2022-11-13T21:27:11.579Z,170.45
2022-11-13T21:29:39.196Z,242.48
2022-11-13T21:32:06.510Z,191.77
2022-11-13T21:34:35.040Z,176.02
2022-11-13T21:37:11.163Z,133.68
2022-11-13T21:39:40.908Z,242.40
2022-11-13T21:42:08.226Z,173.98
2022-11-13T21:44:36.953Z,140.85
2022-11-13T21:47:04.757Z,202.43
2022-11-13T21:49:34.811Z,167.45
2022-11-13T21:54:47.603Z,190.60
2022-11-13T21:57:18.304Z,150.98
2022-11-13T21:59:49.096Z,125.55
2022-11-13T22:02:19.101Z,106.20
2022-11-13T22:04:47.178Z,182.82
2022-11-13T22:07:14.557Z,159.48
2022-11-13T22:09:44.523Z,94.45
2022-11-13T22:12:14.579Z,141.27
2022-11-13T22:14:41.891Z,141.95
2022-11-13T22:17:10.914Z,110.30
2022-11-13T22:19:38.797Z,136.15
2022-11-13T22:22:05.955Z,138.50
2022-11-13T22:24:43.489Z,174.05
2022-11-13T22:27:12.115Z,269.17
2022-11-13T22:29:42.737Z,180.55
2022-11-13T22:32:10.586Z,217.32
2022-11-13T22:34:37.978Z,186.10
2022-11-13T22:37:05.770Z,193.77
2022-11-13T22:39:35.817Z,140.55
2022-11-13T22:42:07.827Z,124.40
2022-11-13T22:44:54.827Z,209.77
2022-11-13T22:47:28.585Z,204.13
2022-11-13T22:49:55.344Z,143.30
2022-11-13T22:52:26.265Z,174.13
2022-11-13T22:55:52.541Z,177.30
2022-11-13T22:58:19.378Z,212.70
2022-11-13T23:00:46.893Z,264.13
2022-11-13T23:03:17.871Z,196.48
2022-11-13T23:05:44.681Z,169.50
2022-11-13T23:08:15.039Z,156.98
2022-11-13T23:10:41.842Z,286.92
2022-11-13T23:13:10.149Z,169.82
2022-11-13T23:15:39.511Z,326.25
2022-11-13T23:18:09.835Z,198.98
2022-11-13T23:20:43.937Z,212.52
2022-11-13T23:23:11.922Z,236.80
2022-11-13T23:25:40.504Z,201.90
2022-11-13T23:28:07.403Z,167.18
2022-11-13T23:30:36.180Z,201.18
2022-11-13T23:33:03.410Z,213.80
2022-11-13T23:35:31.129Z,212.02
2022-11-13T23:37:58.030Z,182.65
2022-11-13T23:40:25.427Z,210.98
2022-11-13T23:42:55.701Z,219.50
2022-11-13T23:45:23.129Z,233.82
2022-11-13T23:47:51.419Z,157.48
2022-11-13T23:50:18.464Z,177.85
2022-11-13T23:52:48.563Z,140.45
2022-11-13T23:55:16.722Z,156.85
2022-11-13T23:57:44.110Z,211.45
